sensor_id;sensor_type;location;lat;lon;timestamp;P1;durP1;ratioP1;P2;durP2;ratioP2
37787;SDS011;23627;53.302;-6.362;2024-03-08T00:00:07;28.77;;;16.23;;
37787;SDS011;23627;53.302;-6.362;2024-03-08T00:02:41;26.55;;;15.07;;
37787;SDS011;23627;53.302;-6.362;2024-03-08T00:05:08;31.58;;;16.20;;
37787;SDS011;23627;53.302;-6.362;2024-03-08T00:07:34;26.90;;;16.00;;
37787;SDS011;23627;53.302;-6.362;2024-03-08T00:10:01;28.88;;;15.80;;
37787;SDS011;23627;53.302;-6.362;2024-03-08T00:12:31;30.95;;;16.17;;
37787;SDS011;23627;53.302;-6.362;2024-03-08T00:14:57;32.60;;;16.77;;
37787;SDS011;23627;53.302;-6.362;2024-03-08T00:17:22;29.48;;;15.95;;
37787;SDS011;23627;53.302;-6.362;2024-03-08T00:19:49;26.58;;;15.10;;
37787;SDS011;23627;53.302;-6.362;2024-03-08T00:22:17;30.40;;;16.55;;
37787;SDS011;23627;53.302;-6.362;2024-03-08T00:24:43;32.90;;;16.25;;
37787;SDS011;23627;53.302;-6.362;2024-03-08T00:27:09;29.13;;;16.35;;
37787;SDS011;23627;53.302;-6.362;2024-03-08T00:29:36;29.95;;;16.02;;
37787;SDS011;23627;53.302;-6.362;2024-03-08T00:32:03;30.00;;;15.73;;
37787;SDS011;23627;53.302;-6.362;2024-03-08T00:34:29;33.22;;;16.60;;
37787;SDS011;23627;53.302;-6.362;2024-03-08T00:36:56;28.30;;;15.73;;
37787;SDS011;23627;53.302;-6.362;2024-03-08T00:39:23;27.55;;;14.82;;
37787;SDS011;23627;53.302;-6.362;2024-03-08T00:41:49;28.55;;;15.20;;
37787;SDS011;23627;53.302;-6.362;2024-03-08T00:44:15;31.15;;;16.02;;
37787;SDS011;23627;53.302;-6.362;2024-03-08T00:46:41;29.80;;;15.35;;
37787;SDS011;23627;53.302;-6.362;2024-03-08T00:49:07;28.92;;;15.10;;
37787;SDS011;23627;53.302;-6.362;2024-03-08T00:51:33;28.08;;;15.50;;
37787;SDS011;23627;53.302;-6.362;2024-03-08T00:53:59;26.88;;;15.00;;
37787;SDS011;23627;53.302;-6.362;2024-03-08T00:56:24;30.25;;;16.08;;
37787;SDS011;23627;53.302;-6.362;2024-03-08T00:58:50;27.80;;;15.13;;
37787;SDS011;23627;53.302;-6.362;2024-03-08T01:01:18;30.00;;;15.15;;
37787;SDS011;23627;53.302;-6.362;2024-03-08T01:03:44;27.55;;;15.63;;
37787;SDS011;23627;53.302;-6.362;2024-03-08T01:06:10;29.48;;;15.10;;
37787;SDS011;23627;53.302;-6.362;2024-03-08T01:08:36;28.08;;;14.98;;
37787;SDS011;23627;53.302;-6.362;2024-03-08T01:11:04;29.73;;;15.10;;
37787;SDS011;23627;53.302;-6.362;2024-03-08T01:13:30;25.90;;;15.05;;
37787;SDS011;23627;53.302;-6.362;2024-03-08T01:15:56;28.10;;;15.18;;
37787;SDS011;23627;53.302;-6.362;2024-03-08T01:18:21;26.67;;;15.23;;
37787;SDS011;23627;53.302;-6.362;2024-03-08T01:20:47;26.75;;;14.43;;
37787;SDS011;23627;53.302;-6.362;2024-03-08T01:23:13;27.10;;;14.07;;
37787;SDS011;23627;53.302;-6.362;2024-03-08T01:25:39;25.98;;;15.15;;
37787;SDS011;23627;53.302;-6.362;2024-03-08T01:28:06;25.13;;;14.27;;
37787;SDS011;23627;53.302;-6.362;2024-03-08T01:30:32;27.63;;;14.60;;
37787;SDS011;23627;53.302;-6.362;2024-03-08T01:32:59;25.83;;;14.38;;
37787;SDS011;23627;53.302;-6.362;2024-03-08T01:35:25;22.85;;;13.55;;
37787;SDS011;23627;53.302;-6.362;2024-03-08T01:37:52;25.83;;;14.18;;
37787;SDS011;23627;53.302;-6.362;2024-03-08T01:40:18;25.50;;;14.60;;
37787;SDS011;23627;53.302;-6.362;2024-03-08T01:42:44;24.20;;;13.82;;
37787;SDS011;23627;53.302;-6.362;2024-03-08T01:45:10;25.17;;;13.57;;
37787;SDS011;23627;53.302;-6.362;2024-03-08T01:47:35;25.35;;;14.23;;
37787;SDS011;23627;53.302;-6.362;2024-03-08T01:50:02;25.83;;;13.52;;
37787;SDS011;23627;53.302;-6.362;2024-03-08T01:52:31;25.85;;;13.40;;
37787;SDS011;23627;53.302;-6.362;2024-03-08T01:55:01;25.75;;;12.82;;
37787;SDS011;23627;53.302;-6.362;2024-03-08T01:57:32;24.65;;;12.73;;
37787;SDS011;23627;53.302;-6.362;2024-03-08T01:59:59;24.27;;;13.65;;
37787;SDS011;23627;53.302;-6.362;2024-03-08T02:02:30;23.75;;;12.98;;
37787;SDS011;23627;53.302;-6.362;2024-03-08T02:04:57;24.02;;;12.77;;
37787;SDS011;23627;53.302;-6.362;2024-03-08T02:07:25;24.63;;;12.90;;
37787;SDS011;23627;53.302;-6.362;2024-03-08T02:09:51;25.35;;;13.20;;
37787;SDS011;23627;53.302;-6.362;2024-03-08T02:12:17;23.60;;;13.40;;
37787;SDS011;23627;53.302;-6.362;2024-03-08T02:14:45;22.85;;;12.35;;
37787;SDS011;23627;53.302;-6.362;2024-03-08T02:17:12;23.23;;;12.35;;
37787;SDS011;23627;53.302;-6.362;2024-03-08T02:19:38;24.15;;;13.05;;
37787;SDS011;23627;53.302;-6.362;2024-03-08T02:22:04;24.00;;;12.63;;
37787;SDS011;23627;53.302;-6.362;2024-03-08T02:24:31;23.70;;;12.65;;
37787;SDS011;23627;53.302;-6.362;2024-03-08T02:26:57;22.80;;;12.52;;
37787;SDS011;23627;53.302;-6.362;2024-03-08T02:29:23;20.95;;;12.38;;
37787;SDS011;23627;53.302;-6.362;2024-03-08T02:31:52;23.33;;;12.43;;
37787;SDS011;23627;53.302;-6.362;2024-03-08T02:34:18;24.25;;;11.68;;
37787;SDS011;23627;53.302;-6.362;2024-03-08T02:36:45;23.52;;;12.40;;
37787;SDS011;23627;53.302;-6.362;2024-03-08T02:39:12;22.35;;;12.20;;
37787;SDS011;23627;53.302;-6.362;2024-03-08T02:41:37;23.75;;;12.40;;
37787;SDS011;23627;53.302;-6.362;2024-03-08T02:44:03;23.58;;;12.32;;
37787;SDS011;23627;53.302;-6.362;2024-03-08T02:46:29;23.35;;;12.23;;
37787;SDS011;23627;53.302;-6.362;2024-03-08T02:48:55;23.83;;;12.05;;
37787;SDS011;23627;53.302;-6.362;2024-03-08T02:51:21;21.60;;;11.85;;
37787;SDS011;23627;53.302;-6.362;2024-03-08T02:53:47;21.85;;;11.77;;
37787;SDS011;23627;53.302;-6.362;2024-03-08T02:56:14;22.05;;;11.82;;
37787;SDS011;23627;53.302;-6.362;2024-03-08T02:58:41;18.77;;;11.77;;
37787;SDS011;23627;53.302;-6.362;2024-03-08T03:01:08;20.88;;;12.00;;
37787;SDS011;23627;53.302;-6.362;2024-03-08T03:03:35;20.70;;;11.73;;
37787;SDS011;23627;53.302;-6.362;2024-03-08T03:06:01;20.88;;;11.63;;
37787;SDS011;23627;53.302;-6.362;2024-03-08T03:08:26;21.48;;;11.88;;
37787;SDS011;23627;53.302;-6.362;2024-03-08T03:10:53;22.75;;;12.25;;
37787;SDS011;23627;53.302;-6.362;2024-03-08T03:13:21;23.23;;;11.73;;
37787;SDS011;23627;53.302;-6.362;2024-03-08T03:15:48;22.00;;;11.70;;
37787;SDS011;23627;53.302;-6.362;2024-03-08T03:18:14;19.38;;;12.13;;
37787;SDS011;23627;53.302;-6.362;2024-03-08T03:20:40;21.25;;;12.00;;
37787;SDS011;23627;53.302;-6.362;2024-03-08T03:23:07;22.23;;;11.70;;
37787;SDS011;23627;53.302;-6.362;2024-03-08T03:25:34;22.38;;;12.15;;
37787;SDS011;23627;53.302;-6.362;2024-03-08T03:28:03;19.90;;;11.40;;
37787;SDS011;23627;53.302;-6.362;2024-03-08T03:30:30;21.23;;;11.52;;
37787;SDS011;23627;53.302;-6.362;2024-03-08T03:32:59;22.67;;;11.70;;
37787;SDS011;23627;53.302;-6.362;2024-03-08T03:35:26;21.98;;;11.50;;
37787;SDS011;23627;53.302;-6.362;2024-03-08T03:37:53;21.73;;;11.82;;
37787;SDS011;23627;53.302;-6.362;2024-03-08T03:40:48;19.65;;;11.40;;
37787;SDS011;23627;53.302;-6.362;2024-03-08T03:43:17;20.63;;;11.43;;
37787;SDS011;23627;53.302;-6.362;2024-03-08T03:45:43;20.98;;;11.00;;
37787;SDS011;23627;53.302;-6.362;2024-03-08T03:48:08;23.00;;;11.25;;
37787;SDS011;23627;53.302;-6.362;2024-03-08T03:50:35;18.75;;;10.68;;
37787;SDS011;23627;53.302;-6.362;2024-03-08T03:53:01;21.67;;;11.52;;
37787;SDS011;23627;53.302;-6.362;2024-03-08T03:55:27;19.13;;;11.25;;
37787;SDS011;23627;53.302;-6.362;2024-03-08T03:57:53;21.95;;;11.43;;
37787;SDS011;23627;53.302;-6.362;2024-03-08T04:00:20;19.02;;;11.60;;
37787;SDS011;23627;53.302;-6.362;2024-03-08T04:02:45;18.98;;;10.77;;
37787;SDS011;23627;53.302;-6.362;2024-03-08T04:05:11;21.55;;;11.40;;
37787;SDS011;23627;53.302;-6.362;2024-03-08T04:07:38;22.48;;;11.30;;
37787;SDS011;23627;53.302;-6.362;2024-03-08T04:10:05;18.65;;;11.02;;
37787;SDS011;23627;53.302;-6.362;2024-03-08T04:12:35;17.63;;;10.65;;
37787;SDS011;23627;53.302;-6.362;2024-03-08T04:15:01;19.33;;;10.50;;
37787;SDS011;23627;53.302;-6.362;2024-03-08T04:17:27;19.08;;;10.60;;
37787;SDS011;23627;53.302;-6.362;2024-03-08T04:19:53;18.88;;;10.30;;
37787;SDS011;23627;53.302;-6.362;2024-03-08T04:22:19;17.88;;;10.50;;
37787;SDS011;23627;53.302;-6.362;2024-03-08T04:24:45;18.00;;;11.05;;
37787;SDS011;23627;53.302;-6.362;2024-03-08T04:27:11;17.70;;;10.40;;
37787;SDS011;23627;53.302;-6.362;2024-03-08T04:29:37;18.35;;;9.98;;
37787;SDS011;23627;53.302;-6.362;2024-03-08T04:32:04;18.00;;;10.40;;
37787;SDS011;23627;53.302;-6.362;2024-03-08T04:34:31;19.60;;;10.88;;
37787;SDS011;23627;53.302;-6.362;2024-03-08T04:36:58;16.55;;;10.23;;
37787;SDS011;23627;53.302;-6.362;2024-03-08T04:39:24;18.52;;;10.60;;
37787;SDS011;23627;53.302;-6.362;2024-03-08T04:41:53;19.38;;;10.18;;
37787;SDS011;23627;53.302;-6.362;2024-03-08T04:44:21;18.35;;;9.77;;
37787;SDS011;23627;53.302;-6.362;2024-03-08T04:46:48;18.83;;;10.43;;
37787;SDS011;23627;53.302;-6.362;2024-03-08T04:49:14;17.60;;;9.75;;
37787;SDS011;23627;53.302;-6.362;2024-03-08T04:51:40;16.95;;;10.23;;
37787;SDS011;23627;53.302;-6.362;2024-03-08T04:54:05;16.48;;;9.52;;
37787;SDS011;23627;53.302;-6.362;2024-03-08T04:56:31;19.80;;;10.65;;
37787;SDS011;23627;53.302;-6.362;2024-03-08T04:58:57;17.42;;;9.73;;
37787;SDS011;23627;53.302;-6.362;2024-03-08T05:01:22;17.45;;;10.20;;
37787;SDS011;23627;53.302;-6.362;2024-03-08T05:03:48;18.63;;;10.18;;
37787;SDS011;23627;53.302;-6.362;2024-03-08T05:06:15;17.20;;;9.70;;
37787;SDS011;23627;53.302;-6.362;2024-03-08T05:08:41;16.42;;;9.55;;
37787;SDS011;23627;53.302;-6.362;2024-03-08T05:11:07;20.45;;;10.55;;
37787;SDS011;23627;53.302;-6.362;2024-03-08T05:13:33;17.50;;;9.68;;
37787;SDS011;23627;53.302;-6.362;2024-03-08T05:16:02;18.27;;;10.10;;
37787;SDS011;23627;53.302;-6.362;2024-03-08T05:18:28;19.63;;;9.75;;
37787;SDS011;23627;53.302;-6.362;2024-03-08T05:20:54;17.27;;;9.25;;
37787;SDS011;23627;53.302;-6.362;2024-03-08T05:23:20;17.23;;;9.57;;
37787;SDS011;23627;53.302;-6.362;2024-03-08T05:25:47;16.40;;;9.68;;
37787;SDS011;23627;53.302;-6.362;2024-03-08T05:28:13;16.52;;;9.50;;
37787;SDS011;23627;53.302;-6.362;2024-03-08T05:30:38;15.77;;;9.63;;
37787;SDS011;23627;53.302;-6.362;2024-03-08T05:33:04;15.80;;;9.00;;
37787;SDS011;23627;53.302;-6.362;2024-03-08T05:35:30;17.02;;;9.13;;
37787;SDS011;23627;53.302;-6.362;2024-03-08T05:37:57;17.15;;;9.55;;
37787;SDS011;23627;53.302;-6.362;2024-03-08T05:40:23;17.63;;;9.45;;
37787;SDS011;23627;53.302;-6.362;2024-03-08T05:42:49;16.75;;;9.45;;
37787;SDS011;23627;53.302;-6.362;2024-03-08T05:45:15;15.63;;;9.05;;
37787;SDS011;23627;53.302;-6.362;2024-03-08T05:47:41;17.33;;;9.45;;
37787;SDS011;23627;53.302;-6.362;2024-03-08T05:50:07;15.90;;;9.43;;
37787;SDS011;23627;53.302;-6.362;2024-03-08T05:52:35;17.20;;;9.10;;
37787;SDS011;23627;53.302;-6.362;2024-03-08T05:55:03;17.30;;;9.18;;
37787;SDS011;23627;53.302;-6.362;2024-03-08T05:57:32;16.20;;;9.00;;
37787;SDS011;23627;53.302;-6.362;2024-03-08T05:59:57;15.10;;;8.77;;
37787;SDS011;23627;53.302;-6.362;2024-03-08T06:02:23;15.80;;;9.57;;
37787;SDS011;23627;53.302;-6.362;2024-03-08T06:04:49;15.63;;;9.07;;
37787;SDS011;23627;53.302;-6.362;2024-03-08T06:07:15;16.08;;;9.13;;
37787;SDS011;23627;53.302;-6.362;2024-03-08T06:09:42;17.15;;;8.82;;
37787;SDS011;23627;53.302;-6.362;2024-03-08T06:12:11;16.42;;;9.13;;
37787;SDS011;23627;53.302;-6.362;2024-03-08T06:14:37;13.85;;;8.55;;
37787;SDS011;23627;53.302;-6.362;2024-03-08T06:17:03;18.13;;;8.93;;
37787;SDS011;23627;53.302;-6.362;2024-03-08T06:19:32;16.75;;;8.75;;
37787;SDS011;23627;53.302;-6.362;2024-03-08T06:21:58;15.15;;;8.60;;
37787;SDS011;23627;53.302;-6.362;2024-03-08T06:24:25;13.82;;;8.35;;
37787;SDS011;23627;53.302;-6.362;2024-03-08T06:26:52;16.27;;;8.30;;
37787;SDS011;23627;53.302;-6.362;2024-03-08T06:29:18;14.85;;;8.23;;
37787;SDS011;23627;53.302;-6.362;2024-03-08T06:31:44;15.30;;;8.55;;
37787;SDS011;23627;53.302;-6.362;2024-03-08T06:34:10;15.55;;;8.60;;
37787;SDS011;23627;53.302;-6.362;2024-03-08T06:36:36;14.90;;;8.30;;
37787;SDS011;23627;53.302;-6.362;2024-03-08T06:39:03;15.55;;;8.85;;
37787;SDS011;23627;53.302;-6.362;2024-03-08T06:41:34;15.93;;;8.73;;
37787;SDS011;23627;53.302;-6.362;2024-03-08T06:44:03;14.57;;;8.15;;
37787;SDS011;23627;53.302;-6.362;2024-03-08T06:46:29;15.20;;;8.05;;
37787;SDS011;23627;53.302;-6.362;2024-03-08T06:48:55;15.25;;;8.77;;
37787;SDS011;23627;53.302;-6.362;2024-03-08T06:51:21;15.43;;;8.15;;
37787;SDS011;23627;53.302;-6.362;2024-03-08T06:53:46;15.65;;;8.75;;
37787;SDS011;23627;53.302;-6.362;2024-03-08T06:56:14;16.75;;;9.20;;
37787;SDS011;23627;53.302;-6.362;2024-03-08T06:58:40;15.15;;;8.27;;
37787;SDS011;23627;53.302;-6.362;2024-03-08T07:01:07;17.55;;;8.90;;
37787;SDS011;23627;53.302;-6.362;2024-03-08T07:03:38;16.50;;;8.82;;
37787;SDS011;23627;53.302;-6.362;2024-03-08T07:06:09;15.57;;;8.50;;
37787;SDS011;23627;53.302;-6.362;2024-03-08T07:08:35;15.07;;;8.90;;
37787;SDS011;23627;53.302;-6.362;2024-03-08T07:11:01;16.25;;;8.90;;
37787;SDS011;23627;53.302;-6.362;2024-03-08T07:13:28;15.02;;;8.70;;
37787;SDS011;23627;53.302;-6.362;2024-03-08T07:15:54;13.23;;;8.48;;
37787;SDS011;23627;53.302;-6.362;2024-03-08T07:18:20;18.08;;;8.93;;
37787;SDS011;23627;53.302;-6.362;2024-03-08T07:20:47;15.48;;;8.38;;
37787;SDS011;23627;53.302;-6.362;2024-03-08T07:23:14;14.65;;;8.50;;
37787;SDS011;23627;53.302;-6.362;2024-03-08T07:26:00;15.65;;;8.50;;
37787;SDS011;23627;53.302;-6.362;2024-03-08T07:28:26;15.25;;;8.68;;
37787;SDS011;23627;53.302;-6.362;2024-03-08T07:30:52;15.57;;;8.82;;
37787;SDS011;23627;53.302;-6.362;2024-03-08T07:33:26;15.98;;;8.45;;
37787;SDS011;23627;53.302;-6.362;2024-03-08T07:35:52;13.45;;;7.82;;
37787;SDS011;23627;53.302;-6.362;2024-03-08T07:38:18;15.93;;;8.35;;
37787;SDS011;23627;53.302;-6.362;2024-03-08T07:40:46;14.95;;;8.48;;
37787;SDS011;23627;53.302;-6.362;2024-03-08T07:43:13;15.13;;;8.70;;
37787;SDS011;23627;53.302;-6.362;2024-03-08T07:45:39;12.85;;;7.90;;
37787;SDS011;23627;53.302;-6.362;2024-03-08T07:48:05;15.00;;;7.70;;
37787;SDS011;23627;53.302;-6.362;2024-03-08T07:50:38;13.32;;;7.60;;
37787;SDS011;23627;53.302;-6.362;2024-03-08T07:53:05;14.68;;;8.02;;
37787;SDS011;23627;53.302;-6.362;2024-03-08T07:55:34;15.35;;;7.97;;
37787;SDS011;23627;53.302;-6.362;2024-03-08T07:58:01;13.38;;;7.72;;
37787;SDS011;23627;53.302;-6.362;2024-03-08T08:00:28;13.85;;;7.90;;
37787;SDS011;23627;53.302;-6.362;2024-03-08T08:02:55;13.35;;;8.27;;
37787;SDS011;23627;53.302;-6.362;2024-03-08T08:05:21;13.43;;;7.45;;
37787;SDS011;23627;53.302;-6.362;2024-03-08T08:07:47;15.82;;;8.23;;
37787;SDS011;23627;53.302;-6.362;2024-03-08T08:10:13;14.73;;;7.85;;
37787;SDS011;23627;53.302;-6.362;2024-03-08T08:12:43;15.77;;;8.98;;
37787;SDS011;23627;53.302;-6.362;2024-03-08T08:15:10;15.65;;;8.40;;
37787;SDS011;23627;53.302;-6.362;2024-03-08T08:17:35;14.48;;;7.97;;
37787;SDS011;23627;53.302;-6.362;2024-03-08T08:20:01;14.95;;;8.13;;
37787;SDS011;23627;53.302;-6.362;2024-03-08T08:22:30;15.20;;;8.38;;
37787;SDS011;23627;53.302;-6.362;2024-03-08T08:24:56;13.27;;;8.00;;
37787;SDS011;23627;53.302;-6.362;2024-03-08T08:27:22;14.52;;;8.02;;
37787;SDS011;23627;53.302;-6.362;2024-03-08T08:29:47;13.85;;;8.10;;
37787;SDS011;23627;53.302;-6.362;2024-03-08T08:32:14;17.80;;;8.48;;
37787;SDS011;23627;53.302;-6.362;2024-03-08T08:34:40;15.82;;;8.20;;
37787;SDS011;23627;53.302;-6.362;2024-03-08T08:37:07;19.25;;;8.73;;
37787;SDS011;23627;53.302;-6.362;2024-03-08T08:39:34;15.77;;;8.73;;
37787;SDS011;23627;53.302;-6.362;2024-03-08T08:42:00;13.68;;;8.50;;
37787;SDS011;23627;53.302;-6.362;2024-03-08T08:44:28;15.18;;;8.57;;
37787;SDS011;23627;53.302;-6.362;2024-03-08T08:46:56;16.45;;;8.60;;
37787;SDS011;23627;53.302;-6.362;2024-03-08T08:49:22;15.18;;;8.35;;
37787;SDS011;23627;53.302;-6.362;2024-03-08T08:51:52;14.32;;;8.40;;
37787;SDS011;23627;53.302;-6.362;2024-03-08T08:54:18;12.18;;;7.97;;
37787;SDS011;23627;53.302;-6.362;2024-03-08T08:56:44;14.70;;;8.68;;
37787;SDS011;23627;53.302;-6.362;2024-03-08T08:59:10;15.07;;;8.27;;
37787;SDS011;23627;53.302;-6.362;2024-03-08T09:01:39;15.27;;;8.70;;
37787;SDS011;23627;53.302;-6.362;2024-03-08T09:04:05;14.85;;;8.18;;
37787;SDS011;23627;53.302;-6.362;2024-03-08T09:06:32;15.80;;;9.35;;
37787;SDS011;23627;53.302;-6.362;2024-03-08T09:08:58;16.15;;;8.85;;
37787;SDS011;23627;53.302;-6.362;2024-03-08T09:11:24;16.25;;;9.52;;
37787;SDS011;23627;53.302;-6.362;2024-03-08T09:13:52;15.88;;;9.20;;
37787;SDS011;23627;53.302;-6.362;2024-03-08T09:16:18;17.83;;;10.07;;
37787;SDS011;23627;53.302;-6.362;2024-03-08T09:18:44;15.30;;;9.00;;
37787;SDS011;23627;53.302;-6.362;2024-03-08T09:21:10;17.73;;;10.00;;
37787;SDS011;23627;53.302;-6.362;2024-03-08T09:23:38;17.88;;;10.18;;
37787;SDS011;23627;53.302;-6.362;2024-03-08T09:26:05;17.67;;;10.32;;
37787;SDS011;23627;53.302;-6.362;2024-03-08T09:28:34;17.13;;;9.85;;
37787;SDS011;23627;53.302;-6.362;2024-03-08T09:31:00;15.55;;;8.88;;
37787;SDS011;23627;53.302;-6.362;2024-03-08T09:33:26;16.38;;;9.93;;
37787;SDS011;23627;53.302;-6.362;2024-03-08T09:35:53;17.45;;;10.40;;
37787;SDS011;23627;53.302;-6.362;2024-03-08T09:38:19;16.70;;;10.38;;
37787;SDS011;23627;53.302;-6.362;2024-03-08T09:40:45;16.48;;;10.20;;
37787;SDS011;23627;53.302;-6.362;2024-03-08T09:43:13;19.98;;;10.90;;
37787;SDS011;23627;53.302;-6.362;2024-03-08T09:45:38;17.90;;;10.70;;
37787;SDS011;23627;53.302;-6.362;2024-03-08T09:48:10;15.13;;;9.02;;
37787;SDS011;23627;53.302;-6.362;2024-03-08T09:50:40;19.45;;;10.02;;
37787;SDS011;23627;53.302;-6.362;2024-03-08T09:53:06;16.55;;;10.48;;
37787;SDS011;23627;53.302;-6.362;2024-03-08T09:55:34;18.73;;;10.57;;
37787;SDS011;23627;53.302;-6.362;2024-03-08T09:58:07;18.05;;;10.75;;
37787;SDS011;23627;53.302;-6.362;2024-03-08T10:00:55;17.55;;;10.40;;
37787;SDS011;23627;53.302;-6.362;2024-03-08T10:03:26;17.30;;;10.73;;
37787;SDS011;23627;53.302;-6.362;2024-03-08T10:05:53;19.63;;;11.27;;
37787;SDS011;23627;53.302;-6.362;2024-03-08T10:08:21;17.58;;;10.10;;
37787;SDS011;23627;53.302;-6.362;2024-03-08T10:10:47;20.95;;;11.50;;
37787;SDS011;23627;53.302;-6.362;2024-03-08T10:13:14;18.85;;;11.48;;
37787;SDS011;23627;53.302;-6.362;2024-03-08T10:15:42;21.45;;;11.45;;
37787;SDS011;23627;53.302;-6.362;2024-03-08T10:18:08;18.27;;;11.40;;
37787;SDS011;23627;53.302;-6.362;2024-03-08T10:20:35;20.15;;;10.93;;
37787;SDS011;23627;53.302;-6.362;2024-03-08T10:23:04;18.25;;;11.27;;
37787;SDS011;23627;53.302;-6.362;2024-03-08T10:25:31;20.92;;;11.95;;
37787;SDS011;23627;53.302;-6.362;2024-03-08T10:27:58;20.73;;;10.60;;
37787;SDS011;23627;53.302;-6.362;2024-03-08T10:30:24;21.02;;;11.57;;
37787;SDS011;23627;53.302;-6.362;2024-03-08T10:32:50;17.23;;;10.82;;
37787;SDS011;23627;53.302;-6.362;2024-03-08T10:35:16;17.25;;;11.13;;
37787;SDS011;23627;53.302;-6.362;2024-03-08T10:37:46;17.90;;;11.10;;
37787;SDS011;23627;53.302;-6.362;2024-03-08T10:40:18;19.15;;;11.35;;
37787;SDS011;23627;53.302;-6.362;2024-03-08T10:42:57;20.25;;;10.98;;
37787;SDS011;23627;53.302;-6.362;2024-03-08T10:48:04;20.83;;;11.15;;
37787;SDS011;23627;53.302;-6.362;2024-03-08T10:50:53;18.02;;;10.40;;
37787;SDS011;23627;53.302;-6.362;2024-03-08T10:53:19;20.08;;;11.13;;
37787;SDS011;23627;53.302;-6.362;2024-03-08T10:55:49;18.95;;;11.60;;
37787;SDS011;23627;53.302;-6.362;2024-03-08T10:58:19;21.40;;;11.38;;
37787;SDS011;23627;53.302;-6.362;2024-03-08T11:00:47;20.42;;;11.60;;
37787;SDS011;23627;53.302;-6.362;2024-03-08T11:06:09;19.35;;;11.60;;
37787;SDS011;23627;53.302;-6.362;2024-03-08T11:08:43;19.83;;;12.15;;
37787;SDS011;23627;53.302;-6.362;2024-03-08T11:11:27;22.23;;;12.45;;
37787;SDS011;23627;53.302;-6.362;2024-03-08T11:13:57;22.33;;;12.40;;
37787;SDS011;23627;53.302;-6.362;2024-03-08T11:18:54;21.67;;;12.50;;
37787;SDS011;23627;53.302;-6.362;2024-03-08T11:21:22;24.10;;;12.63;;
37787;SDS011;23627;53.302;-6.362;2024-03-08T11:24:01;24.95;;;13.13;;
37787;SDS011;23627;53.302;-6.362;2024-03-08T11:26:36;22.83;;;12.95;;
37787;SDS011;23627;53.302;-6.362;2024-03-08T11:32:09;22.42;;;13.27;;
37787;SDS011;23627;53.302;-6.362;2024-03-08T11:34:36;23.63;;;13.05;;
37787;SDS011;23627;53.302;-6.362;2024-03-08T11:37:05;24.50;;;13.05;;
37787;SDS011;23627;53.302;-6.362;2024-03-08T11:39:35;23.42;;;13.15;;
37787;SDS011;23627;53.302;-6.362;2024-03-08T11:42:02;21.15;;;12.35;;
37787;SDS011;23627;53.302;-6.362;2024-03-08T11:44:29;22.83;;;13.13;;
37787;SDS011;23627;53.302;-6.362;2024-03-08T11:46:56;23.15;;;13.77;;
37787;SDS011;23627;53.302;-6.362;2024-03-08T11:49:22;21.98;;;13.20;;
37787;SDS011;23627;53.302;-6.362;2024-03-08T11:51:51;20.80;;;12.73;;
37787;SDS011;23627;53.302;-6.362;2024-03-08T11:54:21;21.35;;;12.55;;
37787;SDS011;23627;53.302;-6.362;2024-03-08T11:56:47;21.80;;;12.75;;
37787;SDS011;23627;53.302;-6.362;2024-03-08T11:59:16;23.83;;;12.77;;
37787;SDS011;23627;53.302;-6.362;2024-03-08T12:01:42;26.08;;;13.40;;
37787;SDS011;23627;53.302;-6.362;2024-03-08T12:04:11;20.98;;;13.10;;
37787;SDS011;23627;53.302;-6.362;2024-03-08T12:06:38;24.13;;;14.02;;
37787;SDS011;23627;53.302;-6.362;2024-03-08T12:09:08;21.25;;;12.98;;
37787;SDS011;23627;53.302;-6.362;2024-03-08T12:11:38;22.15;;;12.45;;
37787;SDS011;23627;53.302;-6.362;2024-03-08T12:14:04;23.98;;;13.60;;
37787;SDS011;23627;53.302;-6.362;2024-03-08T12:16:31;21.42;;;13.55;;
37787;SDS011;23627;53.302;-6.362;2024-03-08T12:18:57;20.77;;;12.63;;
37787;SDS011;23627;53.302;-6.362;2024-03-08T12:21:23;19.70;;;12.82;;
37787;SDS011;23627;53.302;-6.362;2024-03-08T12:26:29;21.77;;;12.82;;
37787;SDS011;23627;53.302;-6.362;2024-03-08T12:29:14;24.00;;;13.38;;
37787;SDS011;23627;53.302;-6.362;2024-03-08T12:31:45;22.50;;;12.80;;
37787;SDS011;23627;53.302;-6.362;2024-03-08T12:34:13;22.30;;;13.07;;
37787;SDS011;23627;53.302;-6.362;2024-03-08T12:36:48;21.48;;;11.95;;
37787;SDS011;23627;53.302;-6.362;2024-03-08T12:39:20;20.55;;;12.25;;
37787;SDS011;23627;53.302;-6.362;2024-03-08T12:41:55;22.27;;;12.38;;
37787;SDS011;23627;53.302;-6.362;2024-03-08T12:44:27;22.08;;;12.45;;
37787;SDS011;23627;53.302;-6.362;2024-03-08T12:46:53;20.85;;;12.50;;
37787;SDS011;23627;53.302;-6.362;2024-03-08T12:49:20;22.98;;;13.10;;
37787;SDS011;23627;53.302;-6.362;2024-03-08T12:51:48;20.63;;;12.07;;
37787;SDS011;23627;53.302;-6.362;2024-03-08T12:54:14;21.60;;;13.15;;
37787;SDS011;23627;53.302;-6.362;2024-03-08T12:56:40;22.50;;;13.18;;
37787;SDS011;23627;53.302;-6.362;2024-03-08T12:59:06;22.70;;;12.45;;
37787;SDS011;23627;53.302;-6.362;2024-03-08T13:01:33;23.63;;;12.50;;
37787;SDS011;23627;53.302;-6.362;2024-03-08T13:04:02;21.65;;;12.27;;
37787;SDS011;23627;53.302;-6.362;2024-03-08T13:06:29;19.77;;;12.32;;
37787;SDS011;23627;53.302;-6.362;2024-03-08T13:08:56;20.20;;;12.20;;
37787;SDS011;23627;53.302;-6.362;2024-03-08T13:11:23;24.05;;;12.98;;
37787;SDS011;23627;53.302;-6.362;2024-03-08T13:13:50;22.95;;;12.55;;
37787;SDS011;23627;53.302;-6.362;2024-03-08T13:16:18;24.85;;;13.05;;
37787;SDS011;23627;53.302;-6.362;2024-03-08T13:18:44;22.83;;;12.30;;
37787;SDS011;23627;53.302;-6.362;2024-03-08T13:21:13;21.48;;;12.65;;
37787;SDS011;23627;53.302;-6.362;2024-03-08T13:23:43;22.13;;;12.43;;
37787;SDS011;23627;53.302;-6.362;2024-03-08T13:26:14;24.70;;;12.23;;
37787;SDS011;23627;53.302;-6.362;2024-03-08T13:28:49;22.38;;;12.00;;
37787;SDS011;23627;53.302;-6.362;2024-03-08T13:31:18;22.23;;;12.55;;
37787;SDS011;23627;53.302;-6.362;2024-03-08T13:33:45;21.60;;;12.63;;
37787;SDS011;23627;53.302;-6.362;2024-03-08T13:36:12;22.15;;;11.75;;
37787;SDS011;23627;53.302;-6.362;2024-03-08T13:38:47;21.95;;;13.38;;
37787;SDS011;23627;53.302;-6.362;2024-03-08T13:41:16;23.02;;;12.27;;
37787;SDS011;23627;53.302;-6.362;2024-03-08T13:43:45;23.60;;;12.80;;
37787;SDS011;23627;53.302;-6.362;2024-03-08T13:46:14;21.80;;;13.00;;
37787;SDS011;23627;53.302;-6.362;2024-03-08T13:48:40;20.92;;;12.27;;
37787;SDS011;23627;53.302;-6.362;2024-03-08T13:51:06;23.58;;;13.63;;
37787;SDS011;23627;53.302;-6.362;2024-03-08T13:53:33;20.65;;;12.60;;
37787;SDS011;23627;53.302;-6.362;2024-03-08T13:56:02;21.20;;;12.65;;
37787;SDS011;23627;53.302;-6.362;2024-03-08T13:58:28;22.38;;;13.02;;
37787;SDS011;23627;53.302;-6.362;2024-03-08T14:00:54;22.95;;;12.73;;
37787;SDS011;23627;53.302;-6.362;2024-03-08T14:03:20;22.48;;;12.43;;
37787;SDS011;23627;53.302;-6.362;2024-03-08T14:05:46;21.00;;;12.50;;
37787;SDS011;23627;53.302;-6.362;2024-03-08T14:08:12;19.90;;;12.02;;
37787;SDS011;23627;53.302;-6.362;2024-03-08T14:10:39;21.42;;;11.82;;
37787;SDS011;23627;53.302;-6.362;2024-03-08T14:13:04;19.40;;;11.63;;
37787;SDS011;23627;53.302;-6.362;2024-03-08T14:15:31;18.17;;;11.35;;
37787;SDS011;23627;53.302;-6.362;2024-03-08T14:17:58;20.30;;;12.10;;
37787;SDS011;23627;53.302;-6.362;2024-03-08T14:20:24;20.92;;;11.93;;
37787;SDS011;23627;53.302;-6.362;2024-03-08T14:22:53;18.85;;;11.52;;
37787;SDS011;23627;53.302;-6.362;2024-03-08T14:25:20;20.73;;;12.02;;
37787;SDS011;23627;53.302;-6.362;2024-03-08T14:27:49;19.75;;;11.77;;